Nippon Maru II — JFMC — position and weather

sailwx.info

Track history (hours):
 
Tides and Currents Weather Stations Pressure Air Temp Water Temp Dewpoint Dewpoint Depression Visibility Wind Speed Wind Dir Waves Ship Positions

Nippon Maru II (Japan)

Build in 1984. Trains merchant marine cadets for Japan's National Institute for Sea Training.

Ship's website: http://www.kohkun.go.jp/en/ships/index.html

Last reported at 2017-Oct-12 00:09 UTC. Time now 2017-Oct-22 15:34 UTC.
Position N 34°40' E 134°48'.
Warning: this ship's position is 10 days out of date.

Length 110.1 m; beam 13.8 m; draft 110.09 m.

Type: Other ship. MMSI: 431498000.

Date/timePositionNaut miles runAvg speedWind from/ knotsBaromVisibWave heightAir tempDewpointWater temp
2017-Oct-12 00:09N 34°40' E 134°48'5 9.4
2017-Oct-11 23:38N 34°37' E 134°53'210.7
2017-Oct-11 23:28N 34°37' E 134°55'510.2
2017-Oct-11 22:57N 34°37' E 135°01'4 8.0
2017-Oct-11 22:30N 34°35' E 135°05'4 7.9
2017-Oct-11 22:01N 34°32' E 135°06'810.5
2017-Oct-11 21:17N 34°24' E 135°02'410.4
2017-Oct-11 20:53N 34°21' E 135°01'6 9.0
2017-Oct-11 20:14N 34°15' E 134°59'2 9.4
2017-Oct-11 20:00N 34°13' E 134°59'5 9.6
2017-Oct-11 19:30N 34°08' E 134°59'230 6.2
2017-Oct-10 06:37N 34°57' E 139°32'110.2
2017-Oct-10 06:30N 34°57' E 139°34'511.0
2017-Oct-10 06:00N 34°59' E 139°40'611.3
2017-Oct-10 05:31N 35°00' E 139°46'3 4.5
2017-Oct-10 04:46N 35°00' E 139°50'0 0.0
2017-Oct-10 04:28N 35°00' E 139°50'0 0.0
2017-Oct-10 03:52N 35°00' E 139°50'0 0.0
2017-Oct-10 03:28N 35°00' E 139°50'0 0.0
2017-Oct-10 02:58N 35°00' E 139°50'0 0.0
2017-Oct-10 01:22N 35°00' E 139°50'0 0.0
2017-Oct-10 00:16N 35°00' E 139°50'0 0.0
2017-Oct-09 23:58N 35°00' E 139°50'0 0.0
2017-Oct-09 23:28N 35°00' E 139°50'0 0.0
2017-Oct-09 22:58N 35°00' E 139°50'0 0.0
2017-Oct-09 22:28N 35°00' E 139°50'0 0.0
2017-Oct-09 21:52N 35°00' E 139°50'0 0.0
2017-Oct-09 21:28N 35°00' E 139°50'0 0.0
2017-Oct-09 20:58N 35°00' E 139°50'0 0.0
2017-Oct-09 20:28N 35°00' E 139°50'0 0.0
2017-Oct-09 19:58N 35°00' E 139°50'0 0.0
2017-Oct-09 19:28N 35°00' E 139°50'0 0.1
2017-Oct-09 18:58N 35°00' E 139°50'0 0.0
2017-Oct-09 18:28N 35°00' E 139°50'0 0.0
2017-Oct-09 17:58N 35°00' E 139°50'0 0.0
2017-Oct-09 17:28N 35°00' E 139°50'0 0.0
2017-Oct-09 16:58N 35°00' E 139°50'0 0.0
2017-Oct-09 16:28N 35°00' E 139°50'0 0.0
2017-Oct-09 15:58N 35°00' E 139°50'0 0.0
2017-Oct-09 15:22N 35°00' E 139°50'0 0.0
2017-Oct-09 14:58N 35°00' E 139°50'0 0.0
2017-Oct-09 14:28N 35°00' E 139°50'0 0.0
2017-Oct-09 13:58N 35°00' E 139°50'0 0.0
2017-Oct-09 13:28N 35°00' E 139°50'0 0.0
2017-Oct-09 12:58N 35°00' E 139°50'0 0.0
2017-Oct-09 12:27N 35°00' E 139°50'0 0.0
2017-Oct-09 11:57N 35°00' E 139°50'0 0.0
2017-Oct-09 11:27N 35°00' E 139°50'0 0.0
2017-Oct-09 10:09N 35°00' E 139°50'0 0.0
2017-Oct-09 09:51N 35°00' E 139°50'0 0.0
2017-Oct-09 08:33N 35°00' E 139°50'0 0.1
2017-Oct-09 08:27N 35°00' E 139°50'0 0.0
2017-Oct-09 07:57N 35°00' E 139°50'0 0.0
2017-Oct-09 07:21N 35°00' E 139°50'0 0.0
2017-Oct-09 06:57N 35°00' E 139°50'0 0.0
2017-Oct-09 06:27N 35°00' E 139°50'0 0.0
2017-Oct-09 05:57N 35°00' E 139°50'0 0.1
2017-Oct-09 05:21N 35°00' E 139°50'0 0.0
2017-Oct-09 04:51N 35°00' E 139°50'0 0.1
2017-Oct-09 04:21N 35°00' E 139°50'0 0.1
2017-Oct-09 03:57N 35°00' E 139°50'0 0.1
2017-Oct-09 03:27N 35°00' E 139°50'0 0.0
2017-Oct-09 02:57N 35°00' E 139°50'0 0.0
2017-Oct-09 02:15N 35°00' E 139°50'0 0.0
2017-Oct-09 01:57N 35°00' E 139°50'0 0.0
2017-Oct-09 01:15N 35°00' E 139°50'0 0.0
2017-Oct-09 00:57N 35°00' E 139°50'0 0.0
2017-Oct-09 00:27N 35°00' E 139°50'0 0.0
2017-Oct-08 23:57N 35°00' E 139°50'0 0.1
2017-Oct-08 23:27N 35°00' E 139°50'0 0.0
2017-Oct-08 22:57N 35°00' E 139°50'0 0.0
2017-Oct-08 22:27N 35°00' E 139°50'0 0.0
2017-Oct-08 21:09N 35°00' E 139°50'0 0.0
2017-Oct-08 20:57N 35°00' E 139°50'0 0.0
2017-Oct-08 20:27N 35°00' E 139°50'0 0.0
2017-Oct-08 19:57N 35°00' E 139°50'0 0.0
2017-Oct-08 19:26N 35°00' E 139°50'0 0.0
2017-Oct-08 18:50N 35°00' E 139°50'0 0.0
2017-Oct-08 18:26N 35°00' E 139°50'0 0.0
2017-Oct-08 17:56N 35°00' E 139°50'0 0.0
2017-Oct-08 17:26N 35°00' E 139°50'0 0.0
2017-Oct-08 16:56N 35°00' E 139°50'0 0.1
2017-Oct-08 16:26N 35°00' E 139°50'0 0.1
2017-Oct-08 15:50N 35°00' E 139°50'0 0.0
2017-Oct-08 15:26N 35°00' E 139°50'0 0.0
2017-Oct-08 14:56N 35°00' E 139°50'0 0.0
2017-Oct-08 14:26N 35°00' E 139°50'0 0.0
2017-Oct-08 13:56N 35°00' E 139°50'0 0.0
2017-Oct-08 13:26N 35°00' E 139°50'0 0.0
2017-Oct-08 12:56N 35°00' E 139°50'0 0.0
2017-Oct-08 12:26N 35°00' E 139°50'0 0.0
2017-Oct-08 11:56N 35°00' E 139°50'0 0.0
2017-Oct-08 11:26N 35°00' E 139°50'0 0.0
2017-Oct-08 10:56N 35°00' E 139°50'0 0.0
2017-Oct-08 10:26N 35°00' E 139°50'0 0.0
2017-Oct-08 09:56N 35°00' E 139°50'0 0.0
2017-Oct-08 09:20N 35°00' E 139°50'0 0.0
2017-Oct-08 08:56N 35°00' E 139°50'0 0.0
2017-Oct-08 08:26N 35°00' E 139°50'0 0.0
2017-Oct-08 07:56N 35°00' E 139°50'0 0.0
2017-Oct-08 07:26N 35°00' E 139°50'0 0.0
2017-Oct-08 06:56N 35°00' E 139°50'0 0.0
2017-Oct-08 06:26N 35°00' E 139°50'0 0.0
2017-Oct-08 05:56N 35°00' E 139°50'0 0.0
2017-Oct-08 05:26N 35°00' E 139°50'0 0.0
2017-Oct-08 04:50N 35°00' E 139°50'0 0.1
2017-Oct-08 04:14N 35°00' E 139°50'0 0.0
2017-Oct-08 03:38N 35°00' E 139°50'0 0.0
2017-Oct-08 03:26N 35°00' E 139°50'0 0.0
2017-Oct-08 02:56N 35°00' E 139°50'0 0.1
2017-Oct-08 02:26N 35°00' E 139°50'0 0.1
2017-Oct-08 01:50N 35°00' E 139°50'0 0.1
2017-Oct-08 01:26N 35°00' E 139°50'0 0.0
2017-Oct-08 00:50N 35°00' E 139°50'0 0.0
2017-Oct-08 00:26N 35°00' E 139°50'0 0.1
2017-Oct-07 23:57N 35°00' E 139°50'0 0.0
2017-Oct-07 23:27N 35°00' E 139°50'0 0.0
2017-Oct-07 22:57N 35°00' E 139°50'0 0.0
2017-Oct-07 22:27N 35°00' E 139°50'0 0.0
2017-Oct-07 21:57N 35°00' E 139°50'0 0.0
2017-Oct-07 21:27N 35°00' E 139°50'0 0.0
2017-Oct-07 20:57N 35°00' E 139°50'0 0.0
2017-Oct-07 20:27N 35°00' E 139°50'0 0.0
2017-Oct-07 19:57N 35°00' E 139°50'0 0.0
2017-Oct-07 19:27N 35°00' E 139°50'0 0.0
2017-Oct-07 18:57N 35°00' E 139°50'0 0.0
2017-Oct-07 18:21N 35°00' E 139°50'0 0.0
2017-Oct-07 17:57N 35°00' E 139°50'0 0.0
2017-Oct-07 17:27N 35°00' E 139°50'0 0.0
2017-Oct-07 16:57N 35°00' E 139°50'0 0.0
2017-Oct-07 16:27N 35°00' E 139°50'0 0.0
2017-Oct-07 15:57N 35°00' E 139°50'0 0.0
2017-Oct-07 15:27N 35°00' E 139°50'0 0.0
2017-Oct-07 14:45N 35°00' E 139°50'0 0.0
2017-Oct-07 14:21N 35°00' E 139°50'0 0.0
2017-Oct-07 13:57N 35°00' E 139°50'0 0.0
2017-Oct-07 13:27N 35°00' E 139°50'0 0.0
2017-Oct-07 12:57N 35°00' E 139°50'0 0.0
2017-Oct-07 12:03N 35°00' E 139°50'0 0.0
2017-Oct-07 11:45N 35°00' E 139°50'0 0.0
2017-Oct-07 11:27N 35°00' E 139°50'0 0.0
2017-Oct-07 10:57N 35°00' E 139°50'0 0.0
2017-Oct-07 10:27N 35°00' E 139°50'0 0.0
2017-Oct-07 09:57N 35°00' E 139°50'0 0.0
2017-Oct-07 09:27N 35°00' E 139°50'0 0.0
2017-Oct-07 08:39N 35°00' E 139°50'0 0.0
2017-Oct-07 08:27N 35°00' E 139°50'0 0.0
2017-Oct-07 06:27N 35°00' E 139°50'0 0.0
2017-Oct-07 05:41N 35°00' E 139°50'0 0.0
2017-Oct-07 05:31N 35°00' E 139°50'0 0.0
2017-Oct-07 04:59N 35°00' E 139°50'0 0.0
2017-Oct-07 04:29N 35°00' E 139°50'0 0.0
2017-Oct-07 03:59N 35°00' E 139°50'0 0.0
2017-Oct-07 03:30N 35°00' E 139°50'0 0.0
2017-Oct-07 02:59N 35°00' E 139°50'0 0.0
2017-Oct-07 02:29N 35°00' E 139°50'0 0.0
2017-Oct-07 02:01N 35°00' E 139°50'0 0.0
2017-Oct-07 01:30N 35°00' E 139°50'0 0.0
2017-Oct-07 01:01N 35°00' E 139°50'0 0.0
2017-Oct-07 00:31N 35°00' E 139°50'0 0.0
2017-Oct-07 00:00N 35°00' E 139°50'0 0.0
2017-Oct-06 23:28N 35°00' E 139°50'0 0.0
2017-Oct-06 22:58N 35°00' E 139°50'0 0.0
2017-Oct-06 22:26N 35°00' E 139°50'0 0.1
2017-Oct-06 21:59N 35°00' E 139°50'0 0.1
2017-Oct-06 21:31N 35°00' E 139°50'0 0.0
2017-Oct-06 21:00N 35°00' E 139°50'0 0.0
2017-Oct-06 20:30N 35°00' E 139°50'0 0.0
2017-Oct-06 20:00N 35°00' E 139°50'0 0.1
2017-Oct-06 19:31N 35°00' E 139°50'0 0.1
2017-Oct-06 18:59N 35°00' E 139°50'0 0.0
2017-Oct-06 18:31N 35°00' E 139°50'0 0.0
2017-Oct-06 18:00N 35°00' E 139°50'0 0.0
2017-Oct-06 17:30N 35°00' E 139°50'0 0.0
2017-Oct-06 17:00N 35°00' E 139°50'0 0.0
2017-Oct-06 16:29N 35°00' E 139°50'0 0.0
2017-Oct-06 16:00N 35°00' E 139°50'0 0.0
2017-Oct-06 15:31N 35°00' E 139°50'0 0.0
2017-Oct-06 14:59N 35°00' E 139°50'0 0.0
2017-Oct-06 14:23N 35°00' E 139°50'0 0.0
2017-Oct-06 13:59N 35°00' E 139°50'0 0.0
2017-Oct-06 13:29N 35°00' E 139°50'0 0.0
2017-Oct-06 12:53N 35°00' E 139°50'0 0.0
2017-Oct-06 12:29N 35°00' E 139°50'0 0.0
2017-Oct-06 11:59N 35°00' E 139°50'0 0.0
2017-Oct-06 11:29N 35°00' E 139°50'0 0.0
2017-Oct-06 10:59N 35°00' E 139°50'0 0.0
2017-Oct-06 10:29N 35°00' E 139°50'0 0.0
2017-Oct-06 09:59N 35°00' E 139°50'0 0.0
2017-Oct-06 09:23N 35°00' E 139°50'0 0.0
2017-Oct-06 08:41N 35°00' E 139°50'0 0.0
2017-Oct-06 08:23N 35°00' E 139°50'0 0.0
2017-Oct-06 07:59N 35°00' E 139°50'0 0.0
2017-Oct-06 07:29N 35°00' E 139°50'0 0.0
2017-Oct-06 06:53N 35°00' E 139°50'0 0.0
2017-Oct-06 06:23N 35°00' E 139°50'0 0.0
2017-Oct-06 05:59N 35°00' E 139°50'0 0.0
2017-Oct-06 05:23N 35°00' E 139°50'0 0.0
2017-Oct-06 04:59N 35°00' E 139°50'0 0.0
2017-Oct-06 04:23N 35°00' E 139°50'0 0.0
2017-Oct-06 03:47N 35°00' E 139°50'0 0.0
2017-Oct-06 03:29N 35°00' E 139°50'0 0.0
2017-Oct-06 02:53N 35°00' E 139°50'0 0.0
2017-Oct-06 01:17N 35°00' E 139°50'0 0.0
2017-Oct-06 00:59N 35°00' E 139°50'0 0.0
2017-Oct-05 23:29N 35°00' E 139°50'0 0.0
2017-Oct-05 22:52N 35°00' E 139°50'0 0.0
2017-Oct-05 22:28N 35°00' E 139°50'0 0.0
2017-Oct-05 21:52N 35°00' E 139°50'0 0.0
2017-Oct-05 21:22N 35°00' E 139°50'0 0.0
2017-Oct-05 20:58N 35°00' E 139°50'0 0.0
2017-Oct-05 20:28N 35°00' E 139°50'0 0.0
2017-Oct-05 19:58N 35°00' E 139°50'0 0.0
2017-Oct-05 19:28N 35°00' E 139°50'0 0.0
2017-Oct-05 18:58N 35°00' E 139°50'0 0.0
2017-Oct-05 18:28N 35°00' E 139°50'0 0.0
2017-Oct-05 17:58N 35°00' E 139°50'0 0.0
2017-Oct-05 17:28N 35°00' E 139°50'0 0.0
2017-Oct-05 16:58N 35°00' E 139°50'0 0.0
2017-Oct-05 15:28N 35°00' E 139°50'0 0.0
2017-Oct-05 14:58N 35°00' E 139°50'0 0.0
2017-Oct-05 14:16N 35°00' E 139°50'0 0.0
2017-Oct-05 13:58N 35°00' E 139°50'0 0.0
2017-Oct-05 13:28N 35°00' E 139°50'0 0.0
2017-Oct-05 12:58N 35°00' E 139°50'0 0.0
2017-Oct-05 12:28N 35°00' E 139°50'0 0.0
2017-Oct-05 11:58N 35°00' E 139°50'0 0.0
2017-Oct-05 11:28N 35°00' E 139°50'0 0.0
2017-Oct-05 10:58N 35°00' E 139°50'0 0.0
2017-Oct-05 10:28N 35°00' E 139°50'0 0.0
2017-Oct-05 09:58N 35°00' E 139°50'0 0.0
2017-Oct-05 09:28N 35°00' E 139°50'0 0.0
2017-Oct-05 08:58N 35°00' E 139°50'0 0.0
2017-Oct-05 08:28N 35°00' E 139°50'0 0.1
2017-Oct-05 07:52N 35°00' E 139°50'0 0.1
2017-Oct-05 07:28N 35°00' E 139°50'0 0.0
2017-Oct-05 06:58N 35°00' E 139°50'0 0.0
2017-Oct-05 06:28N 35°00' E 139°50'0 0.1
2017-Oct-05 05:58N 35°00' E 139°50'0 0.1
2017-Oct-05 05:28N 35°00' E 139°50'0 0.0
2017-Oct-05 04:58N 35°00' E 139°50'0 0.0
2017-Oct-05 04:28N 35°00' E 139°50'0 0.0
2017-Oct-05 03:58N 35°00' E 139°50'0 0.0
2017-Oct-05 03:28N 35°00' E 139°50'0 0.0
2017-Oct-05 02:46N 35°00' E 139°50'0 0.0
2017-Oct-05 02:28N 35°00' E 139°50'0 0.0
2017-Oct-05 01:52N 35°00' E 139°50'0 0.0
2017-Oct-05 01:28N 35°00' E 139°50'0 0.1
2017-Oct-05 00:52N 35°00' E 139°50'0 0.0
2017-Oct-05 00:28N 35°00' E 139°50'0 0.1
2017-Oct-04 23:40N 35°00' E 139°50'0 0.2
2017-Oct-04 23:28N 35°00' E 139°50'0 0.0
2017-Oct-04 22:57N 35°00' E 139°50'0 0.1
2017-Oct-04 22:27N 35°00' E 139°50'0 0.0
2017-Oct-04 21:51N 35°00' E 139°50'0 0.0
2017-Oct-04 21:21N 35°00' E 139°50'0 0.0
2017-Oct-04 20:51N 35°00' E 139°50'0 0.0
2017-Oct-04 20:21N 35°00' E 139°50'0 0.0
2017-Oct-04 19:57N 35°00' E 139°50'0 0.1
2017-Oct-04 19:27N 35°00' E 139°50'0 0.0
2017-Oct-04 18:57N 35°00' E 139°50'0 0.1
2017-Oct-04 18:27N 35°00' E 139°50'0 0.0
2017-Oct-04 17:57N 35°00' E 139°50'0 0.0
2017-Oct-04 17:27N 35°00' E 139°50'0 0.0
2017-Oct-04 16:57N 35°00' E 139°50'0 0.0
2017-Oct-04 16:27N 35°00' E 139°50'0 0.0
2017-Oct-04 15:57N 35°00' E 139°50'0 0.0
2017-Oct-04 15:21N 35°00' E 139°50'0 0.0
2017-Oct-04 14:57N 35°00' E 139°50'0 0.0
2017-Oct-04 14:27N 35°00' E 139°50'0 0.0
2017-Oct-04 13:57N 35°00' E 139°50'0 0.0
2017-Oct-04 13:27N 35°00' E 139°50'0 0.0
2017-Oct-04 12:57N 35°00' E 139°50'0 0.0
2017-Oct-04 12:27N 35°00' E 139°50'0 0.0
2017-Oct-04 11:33N 35°00' E 139°50'0 0.0
2017-Oct-04 11:27N 35°00' E 139°50'0 0.0
2017-Oct-04 10:57N 35°00' E 139°50'0 0.0
2017-Oct-04 10:27N 35°00' E 139°50'0 0.0
2017-Oct-04 09:45N 35°00' E 139°50'0 0.0
2017-Oct-04 09:21N 35°00' E 139°50'0 0.0
2017-Oct-04 08:45N 35°00' E 139°50'0 0.0
2017-Oct-04 08:09N 35°00' E 139°50'0 0.0
2017-Oct-04 07:45N 35°00' E 139°50'0 0.0
2017-Oct-04 05:51N 35°00' E 139°50'0 0.0
2017-Oct-04 05:15N 35°00' E 139°50'0 0.0
2017-Oct-04 04:51N 35°00' E 139°50'0 0.0
2017-Oct-04 04:27N 35°00' E 139°50'0 0.0
2017-Oct-04 03:57N 35°00' E 139°50'0 0.0
2017-Oct-04 03:21N 35°00' E 139°50'0 0.0
2017-Oct-04 02:51N 35°00' E 139°50'0 0.0
2017-Oct-04 02:15N 35°00' E 139°50'0 0.0
2017-Oct-04 01:57N 35°00' E 139°50'0 0.0
2017-Oct-04 01:15N 35°00' E 139°50'0 0.0
2017-Oct-04 00:39N 35°00' E 139°50'0 0.0
2017-Oct-04 00:27N 35°00' E 139°50'0 0.0
2017-Oct-03 23:51N 35°00' E 139°50'0 0.0
2017-Oct-03 23:21N 35°00' E 139°50'0 0.0
2017-Oct-03 22:51N 35°00' E 139°50'0 0.0
2017-Oct-03 22:21N 35°00' E 139°50'0 0.0
2017-Oct-03 21:51N 35°00' E 139°50'0 0.0
2017-Oct-03 21:27N 35°00' E 139°50'0 0.0
2017-Oct-03 20:51N 35°00' E 139°50'0 0.0
2017-Oct-03 20:27N 35°00' E 139°50'0 0.0
2017-Oct-03 19:57N 35°00' E 139°50'0 0.0
2017-Oct-03 19:21N 35°00' E 139°50'0 0.0
2017-Oct-03 18:57N 35°00' E 139°50'0 0.0
2017-Oct-03 18:27N 35°00' E 139°50'0 0.0
2017-Oct-03 17:51N 35°00' E 139°50'0 0.0
2017-Oct-03 17:27N 35°00' E 139°50'0 0.0
2017-Oct-03 16:57N 35°00' E 139°50'0 0.0
2017-Oct-03 16:15N 35°00' E 139°50'0 0.0
2017-Oct-03 15:51N 35°00' E 139°50'0 0.0
2017-Oct-03 15:27N 35°00' E 139°50'0 0.0
2017-Oct-03 14:57N 35°00' E 139°50'0 0.0
2017-Oct-03 13:51N 35°00' E 139°50'0 0.0
2017-Oct-03 13:27N 35°00' E 139°50'0 0.0
2017-Oct-03 12:09N 35°00' E 139°50'0 0.2
2017-Oct-03 11:57N 35°00' E 139°50'0 0.0
2017-Oct-03 11:27N 35°00' E 139°50'0 0.0
2017-Oct-03 10:57N 35°00' E 139°50'0 0.0
2017-Oct-03 10:27N 35°00' E 139°50'0 0.0
2017-Oct-03 09:51N 35°00' E 139°50'0 0.0
2017-Oct-03 09:27N 35°00' E 139°50'0 0.0
2017-Oct-03 08:57N 35°00' E 139°50'2 4.3
2017-Oct-03 08:30N 35°01' E 139°48'510.2
2017-Oct-03 08:00N 35°06' E 139°47'510.8
2017-Oct-03 07:30N 35°12' E 139°47'710.2
2017-Oct-03 06:51N 35°18' E 139°44'410.5
2017-Oct-03 06:30N 35°21' E 139°43'5 9.5
2017-Oct-03 06:00N 35°26' E 139°45'510.4
2017-Oct-03 05:30N 35°29' E 139°50'5 9.5
2017-Oct-03 05:00N 35°34' E 139°50'  
Track history (hours):
 
Tides and Currents Weather Stations Pressure Air Temp Water Temp Dewpoint Dewpoint Depression Visibility Wind Speed Wind Dir Waves Ship Positions

Nippon Maru II (Japan)

Build in 1984. Trains merchant marine cadets for Japan's National Institute for Sea Training.

Ship's website: http://www.kohkun.go.jp/en/ships/index.html

Last reported at 2017-Oct-12 00:09 UTC. Time now 2017-Oct-22 15:34 UTC.
Position N 34°40' E 134°48'.
Warning: this ship's position is 10 days out of date.

Length 110.1 m; beam 13.8 m; draft 110.09 m.

Type: Other ship. MMSI: 431498000.

Date/timePositionNaut miles runAvg speedWind from/ knotsBaromVisibWave heightAir tempDewpointWater temp
2017-Oct-12 00:09N 34°40' E 134°48'5 9.4
2017-Oct-11 23:38N 34°37' E 134°53'210.7
2017-Oct-11 23:28N 34°37' E 134°55'510.2
2017-Oct-11 22:57N 34°37' E 135°01'4 8.0
2017-Oct-11 22:30N 34°35' E 135°05'4 7.9
2017-Oct-11 22:01N 34°32' E 135°06'810.5
2017-Oct-11 21:17N 34°24' E 135°02'410.4
2017-Oct-11 20:53N 34°21' E 135°01'6 9.0
2017-Oct-11 20:14N 34°15' E 134°59'2 9.4
2017-Oct-11 20:00N 34°13' E 134°59'5 9.6
2017-Oct-11 19:30N 34°08' E 134°59'230 6.2
2017-Oct-10 06:37N 34°57' E 139°32'110.2
2017-Oct-10 06:30N 34°57' E 139°34'511.0
2017-Oct-10 06:00N 34°59' E 139°40'611.3
2017-Oct-10 05:31N 35°00' E 139°46'3 4.5
2017-Oct-10 04:46N 35°00' E 139°50'0 0.0
2017-Oct-10 04:28N 35°00' E 139°50'0 0.0
2017-Oct-10 03:52N 35°00' E 139°50'0 0.0
2017-Oct-10 03:28N 35°00' E 139°50'0 0.0
2017-Oct-10 02:58N 35°00' E 139°50'0 0.0
2017-Oct-10 01:22N 35°00' E 139°50'0 0.0
2017-Oct-10 00:16N 35°00' E 139°50'0 0.0
2017-Oct-09 23:58N 35°00' E 139°50'0 0.0
2017-Oct-09 23:28N 35°00' E 139°50'0 0.0
2017-Oct-09 22:58N 35°00' E 139°50'0 0.0
2017-Oct-09 22:28N 35°00' E 139°50'0 0.0
2017-Oct-09 21:52N 35°00' E 139°50'0 0.0
2017-Oct-09 21:28N 35°00' E 139°50'0 0.0
2017-Oct-09 20:58N 35°00' E 139°50'0 0.0
2017-Oct-09 20:28N 35°00' E 139°50'0 0.0
2017-Oct-09 19:58N 35°00' E 139°50'0 0.0
2017-Oct-09 19:28N 35°00' E 139°50'0 0.1
2017-Oct-09 18:58N 35°00' E 139°50'0 0.0
2017-Oct-09 18:28N 35°00' E 139°50'0 0.0
2017-Oct-09 17:58N 35°00' E 139°50'0 0.0
2017-Oct-09 17:28N 35°00' E 139°50'0 0.0
2017-Oct-09 16:58N 35°00' E 139°50'0 0.0
2017-Oct-09 16:28N 35°00' E 139°50'0 0.0
2017-Oct-09 15:58N 35°00' E 139°50'0 0.0
2017-Oct-09 15:22N 35°00' E 139°50'0 0.0
2017-Oct-09 14:58N 35°00' E 139°50'0 0.0
2017-Oct-09 14:28N 35°00' E 139°50'0 0.0
2017-Oct-09 13:58N 35°00' E 139°50'0 0.0
2017-Oct-09 13:28N 35°00' E 139°50'0 0.0
2017-Oct-09 12:58N 35°00' E 139°50'0 0.0
2017-Oct-09 12:27N 35°00' E 139°50'0 0.0
2017-Oct-09 11:57N 35°00' E 139°50'0 0.0
2017-Oct-09 11:27N 35°00' E 139°50'0 0.0
2017-Oct-09 10:09N 35°00' E 139°50'0 0.0
2017-Oct-09 09:51N 35°00' E 139°50'0 0.0
2017-Oct-09 08:33N 35°00' E 139°50'0 0.1
2017-Oct-09 08:27N 35°00' E 139°50'0 0.0
2017-Oct-09 07:57N 35°00' E 139°50'0 0.0
2017-Oct-09 07:21N 35°00' E 139°50'0 0.0
2017-Oct-09 06:57N 35°00' E 139°50'0 0.0
2017-Oct-09 06:27N 35°00' E 139°50'0 0.0
2017-Oct-09 05:57N 35°00' E 139°50'0 0.1
2017-Oct-09 05:21N 35°00' E 139°50'0 0.0
2017-Oct-09 04:51N 35°00' E 139°50'0 0.1
2017-Oct-09 04:21N 35°00' E 139°50'0 0.1
2017-Oct-09 03:57N 35°00' E 139°50'0 0.1
2017-Oct-09 03:27N 35°00' E 139°50'0 0.0
2017-Oct-09 02:57N 35°00' E 139°50'0 0.0
2017-Oct-09 02:15N 35°00' E 139°50'0 0.0
2017-Oct-09 01:57N 35°00' E 139°50'0 0.0
2017-Oct-09 01:15N 35°00' E 139°50'0 0.0
2017-Oct-09 00:57N 35°00' E 139°50'0 0.0
2017-Oct-09 00:27N 35°00' E 139°50'0 0.0
2017-Oct-08 23:57N 35°00' E 139°50'0 0.1
2017-Oct-08 23:27N 35°00' E 139°50'0 0.0
2017-Oct-08 22:57N 35°00' E 139°50'0 0.0
2017-Oct-08 22:27N 35°00' E 139°50'0 0.0
2017-Oct-08 21:09N 35°00' E 139°50'0 0.0
2017-Oct-08 20:57N 35°00' E 139°50'0 0.0
2017-Oct-08 20:27N 35°00' E 139°50'0 0.0
2017-Oct-08 19:57N 35°00' E 139°50'0 0.0
2017-Oct-08 19:26N 35°00' E 139°50'0 0.0
2017-Oct-08 18:50N 35°00' E 139°50'0 0.0
2017-Oct-08 18:26N 35°00' E 139°50'0 0.0
2017-Oct-08 17:56N 35°00' E 139°50'0 0.0
2017-Oct-08 17:26N 35°00' E 139°50'0 0.0
2017-Oct-08 16:56N 35°00' E 139°50'0 0.1
2017-Oct-08 16:26N 35°00' E 139°50'0 0.1
2017-Oct-08 15:50N 35°00' E 139°50'0 0.0
2017-Oct-08 15:26N 35°00' E 139°50'0 0.0
2017-Oct-08 14:56N 35°00' E 139°50'0 0.0
2017-Oct-08 14:26N 35°00' E 139°50'0 0.0
2017-Oct-08 13:56N 35°00' E 139°50'0 0.0
2017-Oct-08 13:26N 35°00' E 139°50'0 0.0
2017-Oct-08 12:56N 35°00' E 139°50'0 0.0
2017-Oct-08 12:26N 35°00' E 139°50'0 0.0
2017-Oct-08 11:56N 35°00' E 139°50'0 0.0
2017-Oct-08 11:26N 35°00' E 139°50'0 0.0
2017-Oct-08 10:56N 35°00' E 139°50'0 0.0
2017-Oct-08 10:26N 35°00' E 139°50'0 0.0
2017-Oct-08 09:56N 35°00' E 139°50'0 0.0
2017-Oct-08 09:20N 35°00' E 139°50'0 0.0
2017-Oct-08 08:56N 35°00' E 139°50'0 0.0
2017-Oct-08 08:26N 35°00' E 139°50'0 0.0
2017-Oct-08 07:56N 35°00' E 139°50'0 0.0
2017-Oct-08 07:26N 35°00' E 139°50'0 0.0
2017-Oct-08 06:56N 35°00' E 139°50'0 0.0
2017-Oct-08 06:26N 35°00' E 139°50'0 0.0
2017-Oct-08 05:56N 35°00' E 139°50'0 0.0
2017-Oct-08 05:26N 35°00' E 139°50'0 0.0
2017-Oct-08 04:50N 35°00' E 139°50'0 0.1
2017-Oct-08 04:14N 35°00' E 139°50'0 0.0
2017-Oct-08 03:38N 35°00' E 139°50'0 0.0
2017-Oct-08 03:26N 35°00' E 139°50'0 0.0
2017-Oct-08 02:56N 35°00' E 139°50'0 0.1
2017-Oct-08 02:26N 35°00' E 139°50'0 0.1
2017-Oct-08 01:50N 35°00' E 139°50'0 0.1
2017-Oct-08 01:26N 35°00' E 139°50'0 0.0
2017-Oct-08 00:50N 35°00' E 139°50'0 0.0
2017-Oct-08 00:26N 35°00' E 139°50'0 0.1
2017-Oct-07 23:57N 35°00' E 139°50'0 0.0
2017-Oct-07 23:27N 35°00' E 139°50'0 0.0
2017-Oct-07 22:57N 35°00' E 139°50'0 0.0
2017-Oct-07 22:27N 35°00' E 139°50'0 0.0
2017-Oct-07 21:57N 35°00' E 139°50'0 0.0
2017-Oct-07 21:27N 35°00' E 139°50'0 0.0
2017-Oct-07 20:57N 35°00' E 139°50'0 0.0
2017-Oct-07 20:27N 35°00' E 139°50'0 0.0
2017-Oct-07 19:57N 35°00' E 139°50'0 0.0
2017-Oct-07 19:27N 35°00' E 139°50'0 0.0
2017-Oct-07 18:57N 35°00' E 139°50'0 0.0
2017-Oct-07 18:21N 35°00' E 139°50'0 0.0
2017-Oct-07 17:57N 35°00' E 139°50'0 0.0
2017-Oct-07 17:27N 35°00' E 139°50'0 0.0
2017-Oct-07 16:57N 35°00' E 139°50'0 0.0
2017-Oct-07 16:27N 35°00' E 139°50'0 0.0
2017-Oct-07 15:57N 35°00' E 139°50'0 0.0
2017-Oct-07 15:27N 35°00' E 139°50'0 0.0
2017-Oct-07 14:45N 35°00' E 139°50'0 0.0
2017-Oct-07 14:21N 35°00' E 139°50'0 0.0
2017-Oct-07 13:57N 35°00' E 139°50'0 0.0
2017-Oct-07 13:27N 35°00' E 139°50'0 0.0
2017-Oct-07 12:57N 35°00' E 139°50'0 0.0
2017-Oct-07 12:03N 35°00' E 139°50'0 0.0
2017-Oct-07 11:45N 35°00' E 139°50'0 0.0
2017-Oct-07 11:27N 35°00' E 139°50'0 0.0
2017-Oct-07 10:57N 35°00' E 139°50'0 0.0
2017-Oct-07 10:27N 35°00' E 139°50'0 0.0
2017-Oct-07 09:57N 35°00' E 139°50'0 0.0
2017-Oct-07 09:27N 35°00' E 139°50'0 0.0
2017-Oct-07 08:39N 35°00' E 139°50'0 0.0
2017-Oct-07 08:27N 35°00' E 139°50'0 0.0
2017-Oct-07 06:27N 35°00' E 139°50'0 0.0
2017-Oct-07 05:41N 35°00' E 139°50'0 0.0
2017-Oct-07 05:31N 35°00' E 139°50'0 0.0
2017-Oct-07 04:59N 35°00' E 139°50'0 0.0
2017-Oct-07 04:29N 35°00' E 139°50'0 0.0
2017-Oct-07 03:59N 35°00' E 139°50'0 0.0
2017-Oct-07 03:30N 35°00' E 139°50'0 0.0
2017-Oct-07 02:59N 35°00' E 139°50'0 0.0
2017-Oct-07 02:29N 35°00' E 139°50'0 0.0
2017-Oct-07 02:01N 35°00' E 139°50'0 0.0
2017-Oct-07 01:30N 35°00' E 139°50'0 0.0
2017-Oct-07 01:01N 35°00' E 139°50'0 0.0
2017-Oct-07 00:31N 35°00' E 139°50'0 0.0
2017-Oct-07 00:00N 35°00' E 139°50'0 0.0
2017-Oct-06 23:28N 35°00' E 139°50'0 0.0
2017-Oct-06 22:58N 35°00' E 139°50'0 0.0
2017-Oct-06 22:26N 35°00' E 139°50'0 0.1
2017-Oct-06 21:59N 35°00' E 139°50'0 0.1
2017-Oct-06 21:31N 35°00' E 139°50'0 0.0
2017-Oct-06 21:00N 35°00' E 139°50'0 0.0
2017-Oct-06 20:30N 35°00' E 139°50'0 0.0
2017-Oct-06 20:00N 35°00' E 139°50'0 0.1
2017-Oct-06 19:31N 35°00' E 139°50'0 0.1
2017-Oct-06 18:59N 35°00' E 139°50'0 0.0
2017-Oct-06 18:31N 35°00' E 139°50'0 0.0
2017-Oct-06 18:00N 35°00' E 139°50'0 0.0
2017-Oct-06 17:30N 35°00' E 139°50'0 0.0
2017-Oct-06 17:00N 35°00' E 139°50'0 0.0
2017-Oct-06 16:29N 35°00' E 139°50'0 0.0
2017-Oct-06 16:00N 35°00' E 139°50'0 0.0
2017-Oct-06 15:31N 35°00' E 139°50'0 0.0
2017-Oct-06 14:59N 35°00' E 139°50'0 0.0
2017-Oct-06 14:23N 35°00' E 139°50'0 0.0
2017-Oct-06 13:59N 35°00' E 139°50'0 0.0
2017-Oct-06 13:29N 35°00' E 139°50'0 0.0
2017-Oct-06 12:53N 35°00' E 139°50'0 0.0
2017-Oct-06 12:29N 35°00' E 139°50'0 0.0
2017-Oct-06 11:59N 35°00' E 139°50'0 0.0
2017-Oct-06 11:29N 35°00' E 139°50'0 0.0
2017-Oct-06 10:59N 35°00' E 139°50'0 0.0
2017-Oct-06 10:29N 35°00' E 139°50'0 0.0
2017-Oct-06 09:59N 35°00' E 139°50'0 0.0
2017-Oct-06 09:23N 35°00' E 139°50'0 0.0
2017-Oct-06 08:41N 35°00' E 139°50'0 0.0
2017-Oct-06 08:23N 35°00' E 139°50'0 0.0
2017-Oct-06 07:59N 35°00' E 139°50'0 0.0
2017-Oct-06 07:29N 35°00' E 139°50'0 0.0
2017-Oct-06 06:53N 35°00' E 139°50'0 0.0
2017-Oct-06 06:23N 35°00' E 139°50'0 0.0
2017-Oct-06 05:59N 35°00' E 139°50'0 0.0
2017-Oct-06 05:23N 35°00' E 139°50'0 0.0
2017-Oct-06 04:59N 35°00' E 139°50'0 0.0
2017-Oct-06 04:23N 35°00' E 139°50'0 0.0
2017-Oct-06 03:47N 35°00' E 139°50'0 0.0
2017-Oct-06 03:29N 35°00' E 139°50'0 0.0
2017-Oct-06 02:53N 35°00' E 139°50'0 0.0
2017-Oct-06 01:17N 35°00' E 139°50'0 0.0
2017-Oct-06 00:59N 35°00' E 139°50'0 0.0
2017-Oct-05 23:29N 35°00' E 139°50'0 0.0
2017-Oct-05 22:52N 35°00' E 139°50'0 0.0
2017-Oct-05 22:28N 35°00' E 139°50'0 0.0
2017-Oct-05 21:52N 35°00' E 139°50'0 0.0
2017-Oct-05 21:22N 35°00' E 139°50'0 0.0
2017-Oct-05 20:58N 35°00' E 139°50'0 0.0
2017-Oct-05 20:28N 35°00' E 139°50'0 0.0
2017-Oct-05 19:58N 35°00' E 139°50'0 0.0
2017-Oct-05 19:28N 35°00' E 139°50'0 0.0
2017-Oct-05 18:58N 35°00' E 139°50'0 0.0
2017-Oct-05 18:28N 35°00' E 139°50'0 0.0
2017-Oct-05 17:58N 35°00' E 139°50'0 0.0
2017-Oct-05 17:28N 35°00' E 139°50'0 0.0
2017-Oct-05 16:58N 35°00' E 139°50'0 0.0
2017-Oct-05 15:28N 35°00' E 139°50'0 0.0
2017-Oct-05 14:58N 35°00' E 139°50'0 0.0
2017-Oct-05 14:16N 35°00' E 139°50'0 0.0
2017-Oct-05 13:58N 35°00' E 139°50'0 0.0
2017-Oct-05 13:28N 35°00' E 139°50'0 0.0
2017-Oct-05 12:58N 35°00' E 139°50'0 0.0
2017-Oct-05 12:28N 35°00' E 139°50'0 0.0
2017-Oct-05 11:58N 35°00' E 139°50'0 0.0
2017-Oct-05 11:28N 35°00' E 139°50'0 0.0
2017-Oct-05 10:58N 35°00' E 139°50'0 0.0
2017-Oct-05 10:28N 35°00' E 139°50'0 0.0
2017-Oct-05 09:58N 35°00' E 139°50'0 0.0
2017-Oct-05 09:28N 35°00' E 139°50'0 0.0
2017-Oct-05 08:58N 35°00' E 139°50'0 0.0
2017-Oct-05 08:28N 35°00' E 139°50'0 0.1
2017-Oct-05 07:52N 35°00' E 139°50'0 0.1
2017-Oct-05 07:28N 35°00' E 139°50'0 0.0
2017-Oct-05 06:58N 35°00' E 139°50'0 0.0
2017-Oct-05 06:28N 35°00' E 139°50'0 0.1
2017-Oct-05 05:58N 35°00' E 139°50'0 0.1
2017-Oct-05 05:28N 35°00' E 139°50'0 0.0
2017-Oct-05 04:58N 35°00' E 139°50'0 0.0
2017-Oct-05 04:28N 35°00' E 139°50'0 0.0
2017-Oct-05 03:58N 35°00' E 139°50'0 0.0
2017-Oct-05 03:28N 35°00' E 139°50'0 0.0
2017-Oct-05 02:46N 35°00' E 139°50'0 0.0
2017-Oct-05 02:28N 35°00' E 139°50'0 0.0
2017-Oct-05 01:52N 35°00' E 139°50'0 0.0
2017-Oct-05 01:28N 35°00' E 139°50'0 0.1
2017-Oct-05 00:52N 35°00' E 139°50'0 0.0
2017-Oct-05 00:28N 35°00' E 139°50'0 0.1
2017-Oct-04 23:40N 35°00' E 139°50'0 0.2
2017-Oct-04 23:28N 35°00' E 139°50'0 0.0
2017-Oct-04 22:57N 35°00' E 139°50'0 0.1
2017-Oct-04 22:27N 35°00' E 139°50'0 0.0
2017-Oct-04 21:51N 35°00' E 139°50'0 0.0
2017-Oct-04 21:21N 35°00' E 139°50'0 0.0
2017-Oct-04 20:51N 35°00' E 139°50'0 0.0
2017-Oct-04 20:21N 35°00' E 139°50'0 0.0
2017-Oct-04 19:57N 35°00' E 139°50'0 0.1
2017-Oct-04 19:27N 35°00' E 139°50'0 0.0
2017-Oct-04 18:57N 35°00' E 139°50'0 0.1
2017-Oct-04 18:27N 35°00' E 139°50'0 0.0
2017-Oct-04 17:57N 35°00' E 139°50'0 0.0
2017-Oct-04 17:27N 35°00' E 139°50'0 0.0
2017-Oct-04 16:57N 35°00' E 139°50'0 0.0
2017-Oct-04 16:27N 35°00' E 139°50'0 0.0
2017-Oct-04 15:57N 35°00' E 139°50'0 0.0
2017-Oct-04 15:21N 35°00' E 139°50'0 0.0
2017-Oct-04 14:57N 35°00' E 139°50'0 0.0
2017-Oct-04 14:27N 35°00' E 139°50'0 0.0
2017-Oct-04 13:57N 35°00' E 139°50'0 0.0
2017-Oct-04 13:27N 35°00' E 139°50'0 0.0
2017-Oct-04 12:57N 35°00' E 139°50'0 0.0
2017-Oct-04 12:27N 35°00' E 139°50'0 0.0
2017-Oct-04 11:33N 35°00' E 139°50'0 0.0
2017-Oct-04 11:27N 35°00' E 139°50'0 0.0
2017-Oct-04 10:57N 35°00' E 139°50'0 0.0
2017-Oct-04 10:27N 35°00' E 139°50'0 0.0
2017-Oct-04 09:45N 35°00' E 139°50'0 0.0
2017-Oct-04 09:21N 35°00' E 139°50'0 0.0
2017-Oct-04 08:45N 35°00' E 139°50'0 0.0
2017-Oct-04 08:09N 35°00' E 139°50'0 0.0
2017-Oct-04 07:45N 35°00' E 139°50'0 0.0
2017-Oct-04 05:51N 35°00' E 139°50'0 0.0
2017-Oct-04 05:15N 35°00' E 139°50'0 0.0
2017-Oct-04 04:51N 35°00' E 139°50'0 0.0
2017-Oct-04 04:27N 35°00' E 139°50'0 0.0
2017-Oct-04 03:57N 35°00' E 139°50'0 0.0
2017-Oct-04 03:21N 35°00' E 139°50'0 0.0
2017-Oct-04 02:51N 35°00' E 139°50'0 0.0
2017-Oct-04 02:15N 35°00' E 139°50'0 0.0
2017-Oct-04 01:57N 35°00' E 139°50'0 0.0
2017-Oct-04 01:15N 35°00' E 139°50'0 0.0
2017-Oct-04 00:39N 35°00' E 139°50'0 0.0
2017-Oct-04 00:27N 35°00' E 139°50'0 0.0
2017-Oct-03 23:51N 35°00' E 139°50'0 0.0
2017-Oct-03 23:21N 35°00' E 139°50'0 0.0
2017-Oct-03 22:51N 35°00' E 139°50'0 0.0
2017-Oct-03 22:21N 35°00' E 139°50'0 0.0
2017-Oct-03 21:51N 35°00' E 139°50'0 0.0
2017-Oct-03 21:27N 35°00' E 139°50'0 0.0
2017-Oct-03 20:51N 35°00' E 139°50'0 0.0
2017-Oct-03 20:27N 35°00' E 139°50'0 0.0
2017-Oct-03 19:57N 35°00' E 139°50'0 0.0
2017-Oct-03 19:21N 35°00' E 139°50'0 0.0
2017-Oct-03 18:57N 35°00' E 139°50'0 0.0
2017-Oct-03 18:27N 35°00' E 139°50'0 0.0
2017-Oct-03 17:51N 35°00' E 139°50'0 0.0
2017-Oct-03 17:27N 35°00' E 139°50'0 0.0
2017-Oct-03 16:57N 35°00' E 139°50'0 0.0
2017-Oct-03 16:15N 35°00' E 139°50'0 0.0
2017-Oct-03 15:51N 35°00' E 139°50'0 0.0
2017-Oct-03 15:27N 35°00' E 139°50'0 0.0
2017-Oct-03 14:57N 35°00' E 139°50'0 0.0
2017-Oct-03 13:51N 35°00' E 139°50'0 0.0
2017-Oct-03 13:27N 35°00' E 139°50'0 0.0
2017-Oct-03 12:09N 35°00' E 139°50'0 0.2
2017-Oct-03 11:57N 35°00' E 139°50'0 0.0
2017-Oct-03 11:27N 35°00' E 139°50'0 0.0
2017-Oct-03 10:57N 35°00' E 139°50'0 0.0
2017-Oct-03 10:27N 35°00' E 139°50'0 0.0
2017-Oct-03 09:51N 35°00' E 139°50'0 0.0
2017-Oct-03 09:27N 35°00' E 139°50'0 0.0
2017-Oct-03 08:57N 35°00' E 139°50'2 4.3
2017-Oct-03 08:30N 35°01' E 139°48'510.2
2017-Oct-03 08:00N 35°06' E 139°47'510.8
2017-Oct-03 07:30N 35°12' E 139°47'710.2
2017-Oct-03 06:51N 35°18' E 139°44'410.5
2017-Oct-03 06:30N 35°21' E 139°43'5 9.5
2017-Oct-03 06:00N 35°26' E 139°45'510.4
2017-Oct-03 05:30N 35°29' E 139°50'5 9.5
2017-Oct-03 05:00N 35°34' E 139°50'  

Dump ship's entire track history